sensor_id;sensor_type;location;lat;lon;timestamp;P1;durP1;ratioP1;P2;durP2;ratioP2
36923;SDS011;22841;50.252;18.688;2023-07-20T00:01:26;9.32;;;4.40;;
36923;SDS011;22841;50.252;18.688;2023-07-20T00:03:52;12.20;;;3.47;;
36923;SDS011;22841;50.252;18.688;2023-07-20T00:06:21;5.63;;;3.72;;
36923;SDS011;22841;50.252;18.688;2023-07-20T00:08:48;7.30;;;3.20;;
36923;SDS011;22841;50.252;18.688;2023-07-20T00:11:14;6.25;;;3.72;;
36923;SDS011;22841;50.252;18.688;2023-07-20T00:13:40;6.57;;;3.90;;
36923;SDS011;22841;50.252;18.688;2023-07-20T00:16:06;7.55;;;3.53;;
36923;SDS011;22841;50.252;18.688;2023-07-20T00:18:33;7.00;;;2.95;;
36923;SDS011;22841;50.252;18.688;2023-07-20T00:20:59;11.13;;;3.20;;
36923;SDS011;22841;50.252;18.688;2023-07-20T00:23:25;4.82;;;3.28;;
36923;SDS011;22841;50.252;18.688;2023-07-20T00:25:52;5.63;;;3.10;;
36923;SDS011;22841;50.252;18.688;2023-07-20T00:28:43;4.87;;;3.63;;
36923;SDS011;22841;50.252;18.688;2023-07-20T00:31:09;8.70;;;3.80;;
36923;SDS011;22841;50.252;18.688;2023-07-20T00:33:35;7.28;;;3.95;;
36923;SDS011;22841;50.252;18.688;2023-07-20T00:36:01;7.65;;;3.92;;
36923;SDS011;22841;50.252;18.688;2023-07-20T00:38:27;11.80;;;4.18;;
36923;SDS011;22841;50.252;18.688;2023-07-20T00:40:53;9.75;;;3.40;;
36923;SDS011;22841;50.252;18.688;2023-07-20T00:43:19;13.30;;;4.55;;
36923;SDS011;22841;50.252;18.688;2023-07-20T00:45:46;7.88;;;4.47;;
36923;SDS011;22841;50.252;18.688;2023-07-20T00:48:12;8.35;;;4.65;;
36923;SDS011;22841;50.252;18.688;2023-07-20T00:50:39;10.13;;;3.97;;
36923;SDS011;22841;50.252;18.688;2023-07-20T00:53:06;17.50;;;3.83;;
36923;SDS011;22841;50.252;18.688;2023-07-20T00:55:33;5.95;;;3.83;;
36923;SDS011;22841;50.252;18.688;2023-07-20T00:58:00;4.63;;;3.33;;
36923;SDS011;22841;50.252;18.688;2023-07-20T01:00:26;9.30;;;3.28;;
36923;SDS011;22841;50.252;18.688;2023-07-20T01:02:53;7.55;;;3.80;;
36923;SDS011;22841;50.252;18.688;2023-07-20T01:05:19;10.75;;;4.10;;
36923;SDS011;22841;50.252;18.688;2023-07-20T01:07:53;5.15;;;3.78;;
36923;SDS011;22841;50.252;18.688;2023-07-20T01:10:29;7.07;;;3.80;;
36923;SDS011;22841;50.252;18.688;2023-07-20T01:13:01;10.60;;;3.97;;
36923;SDS011;22841;50.252;18.688;2023-07-20T01:15:28;7.13;;;4.95;;
36923;SDS011;22841;50.252;18.688;2023-07-20T01:17:55;10.82;;;3.67;;
36923;SDS011;22841;50.252;18.688;2023-07-20T01:20:21;9.18;;;3.53;;
36923;SDS011;22841;50.252;18.688;2023-07-20T01:23:05;9.00;;;3.67;;
36923;SDS011;22841;50.252;18.688;2023-07-20T01:36:08;10.20;;;4.00;;
36923;SDS011;22841;50.252;18.688;2023-07-20T01:38:36;9.50;;;4.28;;
36923;SDS011;22841;50.252;18.688;2023-07-20T01:41:02;12.13;;;4.25;;
36923;SDS011;22841;50.252;18.688;2023-07-20T01:43:29;7.50;;;4.03;;
36923;SDS011;22841;50.252;18.688;2023-07-20T01:45:55;7.40;;;4.00;;
36923;SDS011;22841;50.252;18.688;2023-07-20T01:48:21;10.10;;;3.97;;
36923;SDS011;22841;50.252;18.688;2023-07-20T01:50:47;9.07;;;3.75;;
36923;SDS011;22841;50.252;18.688;2023-07-20T01:53:13;6.53;;;3.88;;
36923;SDS011;22841;50.252;18.688;2023-07-20T01:55:40;7.07;;;3.90;;
36923;SDS011;22841;50.252;18.688;2023-07-20T01:58:06;9.70;;;4.20;;
36923;SDS011;22841;50.252;18.688;2023-07-20T02:00:32;6.07;;;3.65;;
36923;SDS011;22841;50.252;18.688;2023-07-20T02:02:58;7.80;;;4.35;;
36923;SDS011;22841;50.252;18.688;2023-07-20T02:05:24;9.65;;;4.30;;
36923;SDS011;22841;50.252;18.688;2023-07-20T02:07:51;10.50;;;3.78;;
36923;SDS011;22841;50.252;18.688;2023-07-20T02:10:17;11.70;;;3.20;;
36923;SDS011;22841;50.252;18.688;2023-07-20T02:12:43;6.05;;;3.30;;
36923;SDS011;22841;50.252;18.688;2023-07-20T02:15:09;5.25;;;3.50;;
36923;SDS011;22841;50.252;18.688;2023-07-20T02:17:35;10.40;;;3.40;;
36923;SDS011;22841;50.252;18.688;2023-07-20T02:20:02;4.65;;;2.92;;
36923;SDS011;22841;50.252;18.688;2023-07-20T02:22:29;6.85;;;2.72;;
36923;SDS011;22841;50.252;18.688;2023-07-20T02:24:55;10.95;;;2.85;;
36923;SDS011;22841;50.252;18.688;2023-07-20T02:27:21;11.60;;;3.10;;
36923;SDS011;22841;50.252;18.688;2023-07-20T02:29:47;6.95;;;2.88;;
36923;SDS011;22841;50.252;18.688;2023-07-20T02:32:13;3.65;;;2.50;;
36923;SDS011;22841;50.252;18.688;2023-07-20T02:34:39;5.22;;;3.15;;
36923;SDS011;22841;50.252;18.688;2023-07-20T02:37:05;3.90;;;2.47;;
36923;SDS011;22841;50.252;18.688;2023-07-20T02:39:32;5.07;;;3.15;;
36923;SDS011;22841;50.252;18.688;2023-07-20T02:41:58;8.57;;;3.03;;
36923;SDS011;22841;50.252;18.688;2023-07-20T02:44:24;6.75;;;2.58;;
36923;SDS011;22841;50.252;18.688;2023-07-20T02:46:50;3.78;;;2.88;;
36923;SDS011;22841;50.252;18.688;2023-07-20T02:49:16;4.18;;;2.65;;
36923;SDS011;22841;50.252;18.688;2023-07-20T02:51:42;7.90;;;2.65;;
36923;SDS011;22841;50.252;18.688;2023-07-20T02:54:08;5.22;;;2.80;;
36923;SDS011;22841;50.252;18.688;2023-07-20T02:56:34;4.82;;;2.55;;
36923;SDS011;22841;50.252;18.688;2023-07-20T02:59:01;7.00;;;3.22;;
36923;SDS011;22841;50.252;18.688;2023-07-20T03:01:27;3.95;;;2.75;;
36923;SDS011;22841;50.252;18.688;2023-07-20T03:03:55;3.95;;;3.15;;
36923;SDS011;22841;50.252;18.688;2023-07-20T03:06:21;10.25;;;3.83;;
36923;SDS011;22841;50.252;18.688;2023-07-20T03:08:47;9.65;;;3.05;;
36923;SDS011;22841;50.252;18.688;2023-07-20T03:11:14;6.00;;;3.08;;
36923;SDS011;22841;50.252;18.688;2023-07-20T03:13:41;8.23;;;3.10;;
36923;SDS011;22841;50.252;18.688;2023-07-20T03:16:11;7.78;;;3.17;;
36923;SDS011;22841;50.252;18.688;2023-07-20T03:18:41;6.32;;;2.97;;
36923;SDS011;22841;50.252;18.688;2023-07-20T03:21:08;3.58;;;2.75;;
36923;SDS011;22841;50.252;18.688;2023-07-20T03:23:37;6.80;;;3.28;;
36923;SDS011;22841;50.252;18.688;2023-07-20T03:26:03;4.88;;;3.10;;
36923;SDS011;22841;50.252;18.688;2023-07-20T03:28:29;5.43;;;2.45;;
36923;SDS011;22841;50.252;18.688;2023-07-20T03:30:56;4.97;;;2.58;;
36923;SDS011;22841;50.252;18.688;2023-07-20T03:33:26;7.88;;;2.85;;
36923;SDS011;22841;50.252;18.688;2023-07-20T03:41:36;5.35;;;3.30;;
36923;SDS011;22841;50.252;18.688;2023-07-20T03:44:03;4.03;;;2.70;;
36923;SDS011;22841;50.252;18.688;2023-07-20T03:46:29;5.82;;;2.90;;
36923;SDS011;22841;50.252;18.688;2023-07-20T03:48:56;4.55;;;2.70;;
36923;SDS011;22841;50.252;18.688;2023-07-20T03:51:22;4.18;;;2.38;;
36923;SDS011;22841;50.252;18.688;2023-07-20T03:53:49;3.33;;;2.33;;
36923;SDS011;22841;50.252;18.688;2023-07-20T03:56:15;2.67;;;2.40;;
36923;SDS011;22841;50.252;18.688;2023-07-20T03:58:41;7.72;;;2.75;;
36923;SDS011;22841;50.252;18.688;2023-07-20T04:01:07;3.10;;;2.15;;
36923;SDS011;22841;50.252;18.688;2023-07-20T04:03:33;3.20;;;2.78;;
36923;SDS011;22841;50.252;18.688;2023-07-20T04:05:59;3.58;;;2.38;;
36923;SDS011;22841;50.252;18.688;2023-07-20T04:08:25;6.65;;;3.42;;
36923;SDS011;22841;50.252;18.688;2023-07-20T04:10:51;4.97;;;2.42;;
36923;SDS011;22841;50.252;18.688;2023-07-20T04:13:18;3.85;;;2.63;;
36923;SDS011;22841;50.252;18.688;2023-07-20T04:15:44;9.15;;;2.85;;
36923;SDS011;22841;50.252;18.688;2023-07-20T04:18:10;3.30;;;2.25;;
36923;SDS011;22841;50.252;18.688;2023-07-20T04:20:36;7.05;;;2.80;;
36923;SDS011;22841;50.252;18.688;2023-07-20T04:23:03;10.60;;;3.20;;
36923;SDS011;22841;50.252;18.688;2023-07-20T04:25:29;8.07;;;2.45;;
36923;SDS011;22841;50.252;18.688;2023-07-20T04:28:05;5.82;;;2.20;;
36923;SDS011;22841;50.252;18.688;2023-07-20T04:30:37;6.75;;;2.53;;
36923;SDS011;22841;50.252;18.688;2023-07-20T04:33:05;5.43;;;2.67;;
36923;SDS011;22841;50.252;18.688;2023-07-20T04:38:19;4.72;;;2.58;;
36923;SDS011;22841;50.252;18.688;2023-07-20T04:41:11;3.85;;;2.88;;
36923;SDS011;22841;50.252;18.688;2023-07-20T04:43:41;4.47;;;2.45;;
36923;SDS011;22841;50.252;18.688;2023-07-20T04:46:11;3.25;;;2.35;;
36923;SDS011;22841;50.252;18.688;2023-07-20T04:48:37;2.58;;;2.38;;
36923;SDS011;22841;50.252;18.688;2023-07-20T04:51:04;2.88;;;2.20;;
36923;SDS011;22841;50.252;18.688;2023-07-20T04:53:30;3.35;;;2.53;;
36923;SDS011;22841;50.252;18.688;2023-07-20T04:55:56;4.03;;;2.78;;
36923;SDS011;22841;50.252;18.688;2023-07-20T04:58:22;5.70;;;2.50;;
36923;SDS011;22841;50.252;18.688;2023-07-20T05:00:49;3.47;;;2.80;;
36923;SDS011;22841;50.252;18.688;2023-07-20T05:03:15;28.00;;;3.60;;
36923;SDS011;22841;50.252;18.688;2023-07-20T05:05:42;3.25;;;2.42;;
36923;SDS011;22841;50.252;18.688;2023-07-20T05:08:08;3.50;;;2.88;;
36923;SDS011;22841;50.252;18.688;2023-07-20T05:10:35;3.70;;;2.50;;
36923;SDS011;22841;50.252;18.688;2023-07-20T05:13:01;8.45;;;2.92;;
36923;SDS011;22841;50.252;18.688;2023-07-20T05:15:27;3.25;;;2.40;;
36923;SDS011;22841;50.252;18.688;2023-07-20T05:17:53;4.25;;;2.55;;
36923;SDS011;22841;50.252;18.688;2023-07-20T05:20:19;5.63;;;2.85;;
36923;SDS011;22841;50.252;18.688;2023-07-20T05:22:46;5.03;;;2.53;;
36923;SDS011;22841;50.252;18.688;2023-07-20T05:25:12;4.57;;;2.35;;
36923;SDS011;22841;50.252;18.688;2023-07-20T05:27:38;7.95;;;2.83;;
36923;SDS011;22841;50.252;18.688;2023-07-20T05:30:05;5.15;;;2.92;;
36923;SDS011;22841;50.252;18.688;2023-07-20T05:32:35;3.50;;;2.50;;
36923;SDS011;22841;50.252;18.688;2023-07-20T05:35:01;12.57;;;2.70;;
36923;SDS011;22841;50.252;18.688;2023-07-20T05:37:28;4.55;;;2.50;;
36923;SDS011;22841;50.252;18.688;2023-07-20T05:39:54;7.40;;;2.45;;
36923;SDS011;22841;50.252;18.688;2023-07-20T05:42:20;5.85;;;2.10;;
36923;SDS011;22841;50.252;18.688;2023-07-20T05:44:46;5.10;;;2.25;;
36923;SDS011;22841;50.252;18.688;2023-07-20T05:47:13;3.78;;;2.17;;
36923;SDS011;22841;50.252;18.688;2023-07-20T05:49:39;2.58;;;2.05;;
36923;SDS011;22841;50.252;18.688;2023-07-20T05:52:06;16.35;;;2.10;;
36923;SDS011;22841;50.252;18.688;2023-07-20T05:54:32;2.70;;;2.38;;
36923;SDS011;22841;50.252;18.688;2023-07-20T05:56:58;6.75;;;1.63;;
36923;SDS011;22841;50.252;18.688;2023-07-20T05:59:24;7.85;;;1.75;;
36923;SDS011;22841;50.252;18.688;2023-07-20T06:01:50;10.73;;;2.03;;
36923;SDS011;22841;50.252;18.688;2023-07-20T06:04:16;6.35;;;2.20;;
36923;SDS011;22841;50.252;18.688;2023-07-20T06:06:42;7.57;;;2.40;;
36923;SDS011;22841;50.252;18.688;2023-07-20T06:09:08;2.63;;;1.73;;
36923;SDS011;22841;50.252;18.688;2023-07-20T06:11:38;6.53;;;2.25;;
36923;SDS011;22841;50.252;18.688;2023-07-20T06:17:20;1.92;;;1.60;;
36923;SDS011;22841;50.252;18.688;2023-07-20T06:20:11;3.03;;;2.10;;
36923;SDS011;22841;50.252;18.688;2023-07-20T06:23:02;1.67;;;1.50;;
36923;SDS011;22841;50.252;18.688;2023-07-20T06:25:53;4.07;;;1.88;;
36923;SDS011;22841;50.252;18.688;2023-07-20T06:28:44;1.75;;;1.65;;
36923;SDS011;22841;50.252;18.688;2023-07-20T06:31:35;4.53;;;1.60;;
36923;SDS011;22841;50.252;18.688;2023-07-20T06:34:02;1.48;;;1.38;;
36923;SDS011;22841;50.252;18.688;2023-07-20T06:36:28;2.45;;;1.80;;
36923;SDS011;22841;50.252;18.688;2023-07-20T06:38:55;1.85;;;1.23;;
36923;SDS011;22841;50.252;18.688;2023-07-20T06:41:21;2.25;;;1.58;;
36923;SDS011;22841;50.252;18.688;2023-07-20T06:43:48;2.38;;;1.40;;
36923;SDS011;22841;50.252;18.688;2023-07-20T06:46:14;1.67;;;1.58;;
36923;SDS011;22841;50.252;18.688;2023-07-20T06:48:40;2.35;;;1.23;;
36923;SDS011;22841;50.252;18.688;2023-07-20T06:51:06;3.55;;;1.65;;
36923;SDS011;22841;50.252;18.688;2023-07-20T06:53:32;2.47;;;1.20;;
36923;SDS011;22841;50.252;18.688;2023-07-20T06:55:58;3.00;;;1.40;;
36923;SDS011;22841;50.252;18.688;2023-07-20T06:58:24;3.88;;;1.88;;
36923;SDS011;22841;50.252;18.688;2023-07-20T07:00:51;2.55;;;1.58;;
36923;SDS011;22841;50.252;18.688;2023-07-20T07:03:17;4.85;;;2.17;;
36923;SDS011;22841;50.252;18.688;2023-07-20T07:05:43;2.85;;;1.55;;
36923;SDS011;22841;50.252;18.688;2023-07-20T07:08:12;3.20;;;1.70;;
36923;SDS011;22841;50.252;18.688;2023-07-20T07:10:38;2.30;;;1.40;;
36923;SDS011;22841;50.252;18.688;2023-07-20T07:13:05;3.78;;;1.98;;
36923;SDS011;22841;50.252;18.688;2023-07-20T07:15:31;3.42;;;1.33;;
36923;SDS011;22841;50.252;18.688;2023-07-20T07:17:57;3.45;;;1.30;;
36923;SDS011;22841;50.252;18.688;2023-07-20T07:20:25;2.95;;;1.60;;
36923;SDS011;22841;50.252;18.688;2023-07-20T07:22:51;2.13;;;1.88;;
36923;SDS011;22841;50.252;18.688;2023-07-20T07:25:18;2.42;;;1.63;;
36923;SDS011;22841;50.252;18.688;2023-07-20T07:27:45;5.60;;;1.73;;
36923;SDS011;22841;50.252;18.688;2023-07-20T07:30:11;4.70;;;2.35;;
36923;SDS011;22841;50.252;18.688;2023-07-20T07:32:37;3.42;;;2.00;;
36923;SDS011;22841;50.252;18.688;2023-07-20T07:35:04;2.35;;;1.60;;
36923;SDS011;22841;50.252;18.688;2023-07-20T07:37:30;5.32;;;1.85;;
36923;SDS011;22841;50.252;18.688;2023-07-20T07:39:57;6.00;;;2.67;;
36923;SDS011;22841;50.252;18.688;2023-07-20T07:42:23;4.25;;;2.55;;
36923;SDS011;22841;50.252;18.688;2023-07-20T07:44:49;3.08;;;2.38;;
36923;SDS011;22841;50.252;18.688;2023-07-20T07:47:15;15.00;;;3.17;;
36923;SDS011;22841;50.252;18.688;2023-07-20T07:49:41;10.70;;;2.58;;
36923;SDS011;22841;50.252;18.688;2023-07-20T07:52:07;5.40;;;2.63;;
36923;SDS011;22841;50.252;18.688;2023-07-20T07:54:33;5.80;;;2.47;;
36923;SDS011;22841;50.252;18.688;2023-07-20T07:57:00;3.65;;;2.42;;
36923;SDS011;22841;50.252;18.688;2023-07-20T07:59:26;9.52;;;2.80;;
36923;SDS011;22841;50.252;18.688;2023-07-20T08:01:52;2.97;;;2.22;;
36923;SDS011;22841;50.252;18.688;2023-07-20T08:04:18;4.93;;;2.92;;
36923;SDS011;22841;50.252;18.688;2023-07-20T08:06:45;7.75;;;3.55;;
36923;SDS011;22841;50.252;18.688;2023-07-20T08:09:11;5.75;;;4.22;;
36923;SDS011;22841;50.252;18.688;2023-07-20T08:11:38;7.93;;;4.28;;
36923;SDS011;22841;50.252;18.688;2023-07-20T08:14:05;12.48;;;5.93;;
36923;SDS011;22841;50.252;18.688;2023-07-20T08:16:31;10.73;;;5.80;;
36923;SDS011;22841;50.252;18.688;2023-07-20T08:18:57;9.82;;;4.43;;
36923;SDS011;22841;50.252;18.688;2023-07-20T08:21:23;8.82;;;4.15;;
36923;SDS011;22841;50.252;18.688;2023-07-20T08:23:49;6.10;;;4.57;;
36923;SDS011;22841;50.252;18.688;2023-07-20T08:26:15;9.32;;;5.43;;
36923;SDS011;22841;50.252;18.688;2023-07-20T08:28:42;7.55;;;5.13;;
36923;SDS011;22841;50.252;18.688;2023-07-20T08:31:09;6.75;;;4.85;;
36923;SDS011;22841;50.252;18.688;2023-07-20T08:33:36;8.48;;;4.90;;
36923;SDS011;22841;50.252;18.688;2023-07-20T08:36:02;8.93;;;5.60;;
36923;SDS011;22841;50.252;18.688;2023-07-20T08:38:29;7.40;;;4.90;;
36923;SDS011;22841;50.252;18.688;2023-07-20T08:40:55;9.18;;;5.32;;
36923;SDS011;22841;50.252;18.688;2023-07-20T08:43:22;6.10;;;4.70;;
36923;SDS011;22841;50.252;18.688;2023-07-20T08:45:52;9.35;;;5.78;;
36923;SDS011;22841;50.252;18.688;2023-07-20T08:48:45;11.38;;;6.55;;
36923;SDS011;22841;50.252;18.688;2023-07-20T08:51:37;10.07;;;5.47;;
36923;SDS011;22841;50.252;18.688;2023-07-20T08:54:06;6.72;;;5.65;;
36923;SDS011;22841;50.252;18.688;2023-07-20T08:56:36;8.73;;;6.10;;
36923;SDS011;22841;50.252;18.688;2023-07-20T08:59:02;10.30;;;5.45;;
36923;SDS011;22841;50.252;18.688;2023-07-20T09:01:30;9.32;;;5.35;;
36923;SDS011;22841;50.252;18.688;2023-07-20T09:03:57;9.05;;;6.03;;
36923;SDS011;22841;50.252;18.688;2023-07-20T09:06:23;7.15;;;5.57;;
36923;SDS011;22841;50.252;18.688;2023-07-20T09:08:49;6.00;;;5.00;;
36923;SDS011;22841;50.252;18.688;2023-07-20T09:11:16;18.08;;;5.10;;
36923;SDS011;22841;50.252;18.688;2023-07-20T09:13:42;9.43;;;5.20;;
36923;SDS011;22841;50.252;18.688;2023-07-20T09:16:09;7.32;;;4.10;;
36923;SDS011;22841;50.252;18.688;2023-07-20T09:18:40;9.25;;;5.03;;
36923;SDS011;22841;50.252;18.688;2023-07-20T09:21:07;12.65;;;5.30;;
36923;SDS011;22841;50.252;18.688;2023-07-20T09:23:33;8.50;;;5.65;;
36923;SDS011;22841;50.252;18.688;2023-07-20T09:26:04;8.30;;;6.35;;
36923;SDS011;22841;50.252;18.688;2023-07-20T09:28:43;9.73;;;7.35;;
36923;SDS011;22841;50.252;18.688;2023-07-20T09:31:20;8.45;;;6.63;;
36923;SDS011;22841;50.252;18.688;2023-07-20T09:33:47;10.90;;;7.68;;
36923;SDS011;22841;50.252;18.688;2023-07-20T09:36:14;9.30;;;6.85;;
36923;SDS011;22841;50.252;18.688;2023-07-20T09:38:43;10.80;;;6.65;;
36923;SDS011;22841;50.252;18.688;2023-07-20T09:41:13;14.55;;;7.97;;
36923;SDS011;22841;50.252;18.688;2023-07-20T09:43:41;12.55;;;7.40;;
36923;SDS011;22841;50.252;18.688;2023-07-20T09:46:07;12.73;;;6.75;;
36923;SDS011;22841;50.252;18.688;2023-07-20T09:48:34;8.82;;;6.60;;
36923;SDS011;22841;50.252;18.688;2023-07-20T09:51:00;11.02;;;6.43;;
36923;SDS011;22841;50.252;18.688;2023-07-20T09:53:27;9.80;;;6.38;;
36923;SDS011;22841;50.252;18.688;2023-07-20T09:55:55;12.27;;;6.95;;
36923;SDS011;22841;50.252;18.688;2023-07-20T09:58:22;14.73;;;7.07;;
36923;SDS011;22841;50.252;18.688;2023-07-20T10:00:48;13.27;;;6.93;;
36923;SDS011;22841;50.252;18.688;2023-07-20T10:03:18;8.65;;;6.70;;
36923;SDS011;22841;50.252;18.688;2023-07-20T10:05:54;10.30;;;7.43;;
36923;SDS011;22841;50.252;18.688;2023-07-20T10:08:24;9.57;;;7.07;;
36923;SDS011;22841;50.252;18.688;2023-07-20T10:10:51;9.23;;;6.13;;
36923;SDS011;22841;50.252;18.688;2023-07-20T10:13:18;13.40;;;6.10;;
36923;SDS011;22841;50.252;18.688;2023-07-20T10:15:49;8.18;;;5.28;;
36923;SDS011;22841;50.252;18.688;2023-07-20T10:20:54;6.53;;;5.13;;
36923;SDS011;22841;50.252;18.688;2023-07-20T10:23:21;11.18;;;5.00;;
36923;SDS011;22841;50.252;18.688;2023-07-20T10:25:49;10.00;;;5.55;;
36923;SDS011;22841;50.252;18.688;2023-07-20T10:28:16;12.60;;;5.72;;
36923;SDS011;22841;50.252;18.688;2023-07-20T10:30:42;6.72;;;4.85;;
36923;SDS011;22841;50.252;18.688;2023-07-20T10:33:09;7.53;;;4.43;;
36923;SDS011;22841;50.252;18.688;2023-07-20T10:35:54;7.13;;;4.47;;
36923;SDS011;22841;50.252;18.688;2023-07-20T10:41:17;5.68;;;3.05;;
36923;SDS011;22841;50.252;18.688;2023-07-20T10:43:43;5.65;;;3.17;;
36923;SDS011;22841;50.252;18.688;2023-07-20T10:46:10;3.05;;;2.80;;
36923;SDS011;22841;50.252;18.688;2023-07-20T10:48:59;4.68;;;2.60;;
36923;SDS011;22841;50.252;18.688;2023-07-20T10:51:25;5.75;;;2.90;;
36923;SDS011;22841;50.252;18.688;2023-07-20T10:53:51;3.13;;;2.38;;
36923;SDS011;22841;50.252;18.688;2023-07-20T10:56:19;4.22;;;2.70;;
36923;SDS011;22841;50.252;18.688;2023-07-20T10:58:46;3.17;;;2.10;;
36923;SDS011;22841;50.252;18.688;2023-07-20T11:01:13;3.28;;;2.17;;
36923;SDS011;22841;50.252;18.688;2023-07-20T11:03:41;3.15;;;1.98;;
36923;SDS011;22841;50.252;18.688;2023-07-20T11:06:32;5.57;;;2.20;;
36923;SDS011;22841;50.252;18.688;2023-07-20T11:09:24;2.78;;;2.20;;
36923;SDS011;22841;50.252;18.688;2023-07-20T11:12:16;3.20;;;2.40;;
36923;SDS011;22841;50.252;18.688;2023-07-20T11:15:08;5.13;;;2.63;;
36923;SDS011;22841;50.252;18.688;2023-07-20T11:18:13;5.20;;;2.83;;
36923;SDS011;22841;50.252;18.688;2023-07-20T11:21:06;2.42;;;2.22;;
36923;SDS011;22841;50.252;18.688;2023-07-20T11:23:58;4.10;;;2.40;;
36923;SDS011;22841;50.252;18.688;2023-07-20T11:26:50;7.90;;;2.55;;
36923;SDS011;22841;50.252;18.688;2023-07-20T11:29:43;8.13;;;2.60;;
36923;SDS011;22841;50.252;18.688;2023-07-20T11:32:11;3.45;;;2.58;;
36923;SDS011;22841;50.252;18.688;2023-07-20T11:34:37;4.57;;;2.50;;
36923;SDS011;22841;50.252;18.688;2023-07-20T11:37:03;8.88;;;2.65;;
36923;SDS011;22841;50.252;18.688;2023-07-20T11:39:31;7.30;;;3.13;;
36923;SDS011;22841;50.252;18.688;2023-07-20T11:41:58;5.28;;;2.72;;
36923;SDS011;22841;50.252;18.688;2023-07-20T11:44:25;6.88;;;3.20;;
36923;SDS011;22841;50.252;18.688;2023-07-20T11:47:05;11.00;;;2.75;;
36923;SDS011;22841;50.252;18.688;2023-07-20T11:49:36;5.43;;;2.80;;
36923;SDS011;22841;50.252;18.688;2023-07-20T11:52:10;3.75;;;2.40;;
36923;SDS011;22841;50.252;18.688;2023-07-20T11:54:41;7.35;;;2.42;;
36923;SDS011;22841;50.252;18.688;2023-07-20T11:57:15;2.95;;;2.60;;
36923;SDS011;22841;50.252;18.688;2023-07-20T11:59:54;4.20;;;2.75;;
36923;SDS011;22841;50.252;18.688;2023-07-20T12:02:27;4.88;;;2.72;;
36923;SDS011;22841;50.252;18.688;2023-07-20T12:04:56;9.75;;;2.50;;
36923;SDS011;22841;50.252;18.688;2023-07-20T12:07:25;5.30;;;2.40;;
36923;SDS011;22841;50.252;18.688;2023-07-20T12:10:03;3.92;;;2.03;;
36923;SDS011;22841;50.252;18.688;2023-07-20T12:12:38;4.63;;;2.70;;
36923;SDS011;22841;50.252;18.688;2023-07-20T12:15:25;7.22;;;3.22;;
36923;SDS011;22841;50.252;18.688;2023-07-20T12:17:52;2.63;;;2.22;;
36923;SDS011;22841;50.252;18.688;2023-07-20T12:20:35;5.32;;;2.30;;
36923;SDS011;22841;50.252;18.688;2023-07-20T12:23:10;4.43;;;2.00;;
36923;SDS011;22841;50.252;18.688;2023-07-20T12:28:17;5.22;;;2.72;;
36923;SDS011;22841;50.252;18.688;2023-07-20T12:30:45;2.75;;;2.17;;
36923;SDS011;22841;50.252;18.688;2023-07-20T12:33:12;4.88;;;2.30;;
36923;SDS011;22841;50.252;18.688;2023-07-20T12:35:42;3.70;;;1.95;;
36923;SDS011;22841;50.252;18.688;2023-07-20T12:38:09;5.00;;;1.75;;
36923;SDS011;22841;50.252;18.688;2023-07-20T12:40:35;2.83;;;2.20;;
36923;SDS011;22841;50.252;18.688;2023-07-20T12:43:01;2.63;;;1.80;;
36923;SDS011;22841;50.252;18.688;2023-07-20T12:45:27;6.30;;;2.10;;
36923;SDS011;22841;50.252;18.688;2023-07-20T12:47:54;3.90;;;2.00;;
36923;SDS011;22841;50.252;18.688;2023-07-20T12:50:46;2.42;;;1.90;;
36923;SDS011;22841;50.252;18.688;2023-07-20T12:53:12;2.10;;;1.90;;
36923;SDS011;22841;50.252;18.688;2023-07-20T12:55:38;2.67;;;2.05;;
36923;SDS011;22841;50.252;18.688;2023-07-20T12:58:06;3.67;;;1.80;;
36923;SDS011;22841;50.252;18.688;2023-07-20T13:00:33;3.33;;;1.90;;
36923;SDS011;22841;50.252;18.688;2023-07-20T13:02:59;2.63;;;1.70;;
36923;SDS011;22841;50.252;18.688;2023-07-20T13:05:25;3.80;;;1.50;;
36923;SDS011;22841;50.252;18.688;2023-07-20T13:07:51;2.92;;;1.65;;
36923;SDS011;22841;50.252;18.688;2023-07-20T13:10:17;2.53;;;1.50;;
36923;SDS011;22841;50.252;18.688;2023-07-20T13:12:44;4.80;;;1.90;;
36923;SDS011;22841;50.252;18.688;2023-07-20T13:15:10;2.13;;;1.50;;
36923;SDS011;22841;50.252;18.688;2023-07-20T13:17:37;2.35;;;1.50;;
36923;SDS011;22841;50.252;18.688;2023-07-20T13:20:05;2.63;;;1.60;;
36923;SDS011;22841;50.252;18.688;2023-07-20T13:22:33;2.65;;;1.40;;
36923;SDS011;22841;50.252;18.688;2023-07-20T13:25:00;4.32;;;1.55;;
36923;SDS011;22841;50.252;18.688;2023-07-20T13:27:26;4.93;;;1.70;;
36923;SDS011;22841;50.252;18.688;2023-07-20T13:29:52;4.45;;;1.60;;
36923;SDS011;22841;50.252;18.688;2023-07-20T13:32:18;5.80;;;1.92;;
36923;SDS011;22841;50.252;18.688;2023-07-20T13:34:45;2.55;;;1.60;;
36923;SDS011;22841;50.252;18.688;2023-07-20T13:37:11;4.85;;;1.90;;
36923;SDS011;22841;50.252;18.688;2023-07-20T13:39:38;2.60;;;1.65;;
36923;SDS011;22841;50.252;18.688;2023-07-20T13:42:04;4.60;;;1.55;;
36923;SDS011;22841;50.252;18.688;2023-07-20T13:44:31;4.07;;;1.50;;
36923;SDS011;22841;50.252;18.688;2023-07-20T13:46:57;3.45;;;2.00;;
36923;SDS011;22841;50.252;18.688;2023-07-20T13:52:15;4.50;;;1.48;;
36923;SDS011;22841;50.252;18.688;2023-07-20T13:54:42;10.05;;;2.28;;
36923;SDS011;22841;50.252;18.688;2023-07-20T13:57:08;5.43;;;2.05;;
36923;SDS011;22841;50.252;18.688;2023-07-20T13:59:34;9.65;;;1.95;;
36923;SDS011;22841;50.252;18.688;2023-07-20T14:02:00;7.82;;;1.95;;
36923;SDS011;22841;50.252;18.688;2023-07-20T14:17:35;8.60;;;1.70;;
36923;SDS011;22841;50.252;18.688;2023-07-20T14:39:15;2.70;;;1.38;;
36923;SDS011;22841;50.252;18.688;2023-07-20T14:41:41;1.42;;;1.23;;
36923;SDS011;22841;50.252;18.688;2023-07-20T14:44:07;1.65;;;1.30;;
36923;SDS011;22841;50.252;18.688;2023-07-20T14:46:35;1.83;;;1.00;;
36923;SDS011;22841;50.252;18.688;2023-07-20T14:49:01;1.27;;;1.05;;
36923;SDS011;22841;50.252;18.688;2023-07-20T14:51:28;1.58;;;1.10;;
36923;SDS011;22841;50.252;18.688;2023-07-20T14:57:36;2.88;;;1.00;;
36923;SDS011;22841;50.252;18.688;2023-07-20T15:00:03;2.40;;;1.02;;
36923;SDS011;22841;50.252;18.688;2023-07-20T15:02:33;1.43;;;1.10;;
36923;SDS011;22841;50.252;18.688;2023-07-20T15:04:59;2.00;;;0.95;;
36923;SDS011;22841;50.252;18.688;2023-07-20T15:07:26;4.47;;;1.20;;
36923;SDS011;22841;50.252;18.688;2023-07-20T15:09:52;6.85;;;1.45;;
36923;SDS011;22841;50.252;18.688;2023-07-20T15:12:18;2.75;;;1.40;;
36923;SDS011;22841;50.252;18.688;2023-07-20T15:14:44;1.27;;;1.02;;
36923;SDS011;22841;50.252;18.688;2023-07-20T15:17:29;3.80;;;1.70;;
36923;SDS011;22841;50.252;18.688;2023-07-20T15:19:55;3.45;;;1.30;;
36923;SDS011;22841;50.252;18.688;2023-07-20T15:22:21;5.05;;;1.50;;
36923;SDS011;22841;50.252;18.688;2023-07-20T15:24:47;1.52;;;1.40;;
36923;SDS011;22841;50.252;18.688;2023-07-20T15:27:13;3.60;;;1.20;;
36923;SDS011;22841;50.252;18.688;2023-07-20T15:29:39;8.40;;;1.73;;
36923;SDS011;22841;50.252;18.688;2023-07-20T15:32:06;2.38;;;1.50;;
36923;SDS011;22841;50.252;18.688;2023-07-20T15:34:34;4.57;;;1.90;;
36923;SDS011;22841;50.252;18.688;2023-07-20T15:37:00;4.00;;;1.77;;
36923;SDS011;22841;50.252;18.688;2023-07-20T15:39:26;3.30;;;1.90;;
36923;SDS011;22841;50.252;18.688;2023-07-20T15:41:52;4.28;;;2.55;;
36923;SDS011;22841;50.252;18.688;2023-07-20T15:44:18;2.28;;;1.70;;
36923;SDS011;22841;50.252;18.688;2023-07-20T15:46:45;2.97;;;1.88;;
36923;SDS011;22841;50.252;18.688;2023-07-20T15:49:13;1.92;;;1.50;;
36923;SDS011;22841;50.252;18.688;2023-07-20T15:51:40;5.82;;;2.08;;